Corpus Christi, TX

9:41 PM CDT on August 29, 2014 (GMT -0500)
Corpus Christi International | Change Station
CLOSE
Current Station
Airport
Location: Corpus Christi,
Elevation: 43 ft
Nearby Weather Stations

Elev 43 ft 27.77 °N, 97.51 °W | Updated 50 minutes ago

Mostly Cloudy
Mostly Cloudy
81 °F
Feels Like 86 °F
N
7
Wind Variable Wind from ESE

Today
High -- | Low -- °F
--% Chance of Precip.
Yesterday
High -- | Low -- °F
Precip. -- in
7:06 AM 7:53 PM
Waxing Crescent, 18% visible
Pressure 29.82 in
Visibility 10.0 miles
Clouds Few 1800 ft
Few 11000 ft
Scattered Clouds 17000 ft
Mostly Cloudy 25000 ft
Heat Index 86 °F
Dew Point 74 °F
Humidity 79%
Rainfall 0.20 in
Snow Depth Not available.
UV 0 out of 12
Pollen 7.00 out of 12
Ozone Good
Flu Activity Not available.
METAR KCRP 300151Z 12006KT 10SM FEW018 FEW110 SCT170 BKN250 27/23 A2982 RMK AO2 SLP097 T02720233

More Conditions Fewer Conditions

Pressure 29.82 in
Visibility 10.0 miles
Clouds Few 1800 ft
Few 11000 ft
Scattered Clouds 17000 ft
Mostly Cloudy 25000 ft
Heat Index 86 °F
Dew Point 74 °F
Humidity 79%
Rainfall 0.20 in
Snow Depth Not available.
UV 0 out of 12
Pollen 7.00 out of 12
Ozone Good
Flu Activity Not available.
METAR KCRP 300151Z 12006KT 10SM FEW018 FEW110 SCT170 BKN250 27/23 A2982 RMK AO2 SLP097 T02720233

More Conditions Fewer Conditions

10-Day Weather Forecast

Almanac

Astronomy

Aug. 29, 2014 Rise Set
Actual Time 7:06 AM CDT 7:53 PM CDT
Civil Twilight 6:43 AM CDT 8:17 PM CDT
Nautical Twilight 6:14 AM CDT 8:45 PM CDT
Astronomical Twilight 5:46 AM CDT 9:14 PM CDT
Moon 10:34 AM CDT (8/29) 10:17 PM CDT (8/29)
Length of Visible Light 13h 34m
Length of Day
12h 46m
Tomorrow will be 1m 34s shorter.
Waxing Crescent, 18% of the Moon is Illuminated
Today
Waxing Crescent
Sep 2
First Quarter
Sep 8
Full
Sep 15
Last Quarter
Sep 24
New

Today's Extremes

State Highs State Lows

Community

WunderPhotos

Upload Photos

1,748,421 photos uploaded!

Nearby

Air Quality

  Air Quality AQ Index Pollutant
Yesterday Good
OZONE
Current Good
OZONE
Friday Good
OZONE
Friday Good
PM10
Saturday Good
OZONE
Saturday Good
PM10
Sunday Good
OZONE
Sunday Good
PM10
Monday Good
OZONE
Monday Good
PM10
Tuesday Good
OZONE
Tuesday Good
PM10

Snow Depth

Station Depth Elevation
No new snow has been reported.

Earthquake Activity

City Distance Mag. Time & Date
No recent earthquake activity has been reported nearby.
Minimum magnitude displayed is 2.5.

Coastal Water Temperatures

Place Temperature
Baffin Bay Point of Rocks, TX 82.0 °F
South Bird Island, TX 86.0 °F
Packery Channel, TX 84.9 °F
Port Aransas, TX 84.9 °F
Malaquite Beach (Corpus Christi), TX 84.0 °F

Nearby Weather Stations